Time;durP1;ratioP1;P1;durP2;ratioP2;P2;SDS_P1;SDS_P2;PMS_P1;PMS_P2;Temp;Humidity;BMP_temperature;BMP_pressure;BME280_temperature;BME280_humidity;BME280_pressure;Samples;Min_cycle;Max_cycle;Signal;HPM_P1;HPM_P2
2024/01/07 00:02:10;;;;;;;20.40;14.53;;;0.50;99.90;;;;;;5048744;28;20049;-79
2024/01/07 00:04:36;;;;;;;22.97;14.93;;;0.50;99.90;;;;;;5056833;28;20041;-79
2024/01/07 00:07:03;;;;;;;19.17;14.53;;;0.50;99.90;;;;;;5047614;28;20045;-78
2024/01/07 00:09:29;;;;;;;21.43;15.57;;;0.50;99.90;;;;;;5049547;28;20075;-79
2024/01/07 00:11:55;;;;;;;20.80;14.70;;;0.50;99.90;;;;;;5051523;28;20049;-78
2024/01/07 00:14:20;;;;;;;20.77;15.43;;;0.50;99.90;;;;;;5047205;28;20041;-79
2024/01/07 00:16:46;;;;;;;22.60;15.17;;;0.50;99.90;;;;;;5045496;28;20449;-79
2024/01/07 00:19:12;;;;;;;21.67;15.20;;;0.50;99.90;;;;;;5050014;28;20067;-78
2024/01/07 00:21:37;;;;;;;22.97;15.80;;;0.50;99.90;;;;;;5053855;28;20037;-80
2024/01/07 00:24:03;;;;;;;23.77;15.43;;;0.60;99.90;;;;;;5046316;28;20044;-78
2024/01/07 00:26:29;;;;;;;19.53;15.17;;;0.60;99.90;;;;;;5047392;28;20055;-78
2024/01/07 00:28:54;;;;;;;20.83;14.90;;;0.50;99.90;;;;;;5047836;28;20047;-78
2024/01/07 00:31:20;;;;;;;21.73;15.33;;;0.60;99.90;;;;;;5050870;28;20324;-78
2024/01/07 00:33:46;;;;;;;22.73;14.90;;;0.60;99.90;;;;;;5049692;28;20060;-79
2024/01/07 00:36:11;;;;;;;22.33;15.87;;;0.60;99.90;;;;;;5050388;28;20053;-79
2024/01/07 00:38:37;;;;;;;21.00;15.50;;;0.50;99.90;;;;;;5054998;28;20504;-79
2024/01/07 00:41:03;;;;;;;20.93;15.50;;;0.50;99.90;;;;;;5050637;28;20119;-80
2024/01/07 00:43:29;;;;;;;23.27;15.63;;;0.50;99.90;;;;;;5048884;28;20048;-79
2024/01/07 00:45:54;;;;;;;20.33;15.63;;;0.50;99.90;;;;;;5054236;28;20044;-80
2024/01/07 00:48:20;;;;;;;25.37;16.47;;;0.50;99.90;;;;;;5048022;28;20037;-78
2024/01/07 00:50:46;;;;;;;20.57;14.60;;;0.50;99.90;;;;;;5049943;28;20057;-79
2024/01/07 00:53:11;;;;;;;22.60;14.47;;;0.50;99.90;;;;;;5051117;28;20049;-80
2024/01/07 00:55:37;;;;;;;21.73;14.50;;;0.50;99.90;;;;;;5045898;28;20037;-78
2024/01/07 00:58:03;;;;;;;19.30;14.27;;;0.60;99.90;;;;;;5049884;28;20056;-79
2024/01/07 01:00:29;;;;;;;17.87;14.17;;;0.60;99.90;;;;;;5052578;28;20048;-78
2024/01/07 01:02:55;;;;;;;19.43;13.73;;;0.50;99.90;;;;;;5050545;28;20040;-79
2024/01/07 01:05:21;;;;;;;18.97;13.37;;;0.60;99.90;;;;;;5044629;28;20042;-78
2024/01/07 01:07:47;;;;;;;20.67;14.17;;;0.60;99.90;;;;;;5054645;28;20067;-78
2024/01/07 01:10:14;;;;;;;17.90;13.30;;;0.50;99.90;;;;;;5045325;28;20558;-78
2024/01/07 01:12:40;;;;;;;20.10;13.93;;;0.50;99.90;;;;;;5051288;28;20127;-80
2024/01/07 01:15:06;;;;;;;19.90;14.10;;;0.50;99.90;;;;;;5045256;28;20069;-78
2024/01/07 01:17:31;;;;;;;21.23;14.60;;;0.40;99.90;;;;;;5051985;28;20480;-79
2024/01/07 01:19:57;;;;;;;21.03;13.77;;;0.50;99.90;;;;;;5049279;28;20124;-79
2024/01/07 01:22:23;;;;;;;20.77;14.60;;;0.40;99.90;;;;;;5049147;28;20910;-79
2024/01/07 01:24:48;;;;;;;17.30;13.60;;;0.50;99.90;;;;;;5047279;28;20112;-80
2024/01/07 01:27:15;;;;;;;18.17;14.03;;;0.50;99.90;;;;;;5051959;28;20037;-80
2024/01/07 01:29:41;;;;;;;23.67;14.90;;;0.40;99.90;;;;;;5049034;28;20045;-80
2024/01/07 01:32:07;;;;;;;19.77;14.37;;;0.40;99.90;;;;;;5050682;28;20058;-79
2024/01/07 01:34:33;;;;;;;21.13;14.03;;;0.40;99.90;;;;;;5049768;28;20110;-78
2024/01/07 01:36:58;;;;;;;18.97;14.10;;;0.50;99.90;;;;;;5052802;28;20044;-79
2024/01/07 01:39:24;;;;;;;21.43;14.57;;;0.40;99.90;;;;;;5044845;28;20543;-79
2024/01/07 01:41:50;;;;;;;20.83;14.63;;;0.40;99.90;;;;;;5048970;28;20049;-79
2024/01/07 01:44:15;;;;;;;19.67;13.83;;;0.40;99.90;;;;;;5029333;28;20041;-79
2024/01/07 01:46:41;;;;;;;19.93;13.43;;;0.40;99.90;;;;;;5042707;28;20080;-79
2024/01/07 01:49:07;;;;;;;18.20;13.47;;;0.50;99.90;;;;;;5047969;28;20057;-78
2024/01/07 01:51:34;;;;;;;20.13;13.10;;;0.40;99.90;;;;;;5043725;28;20112;-78
2024/01/07 01:54:00;;;;;;;21.83;14.80;;;0.50;99.90;;;;;;5050129;28;20128;-79
2024/01/07 01:56:28;;;;;;;17.50;13.27;;;0.40;99.90;;;;;;5050937;28;20104;-78
2024/01/07 01:58:54;;;;;;;18.80;12.60;;;0.40;99.90;;;;;;5050416;28;20049;-78
2024/01/07 02:01:20;;;;;;;17.13;13.00;;;0.40;99.90;;;;;;5048210;28;20041;-78
2024/01/07 02:03:46;;;;;;;17.27;13.70;;;0.30;99.90;;;;;;5050082;28;20087;-78
2024/01/07 02:06:12;;;;;;;16.00;12.80;;;0.40;99.90;;;;;;5050060;28;20041;-79
2024/01/07 02:08:39;;;;;;;18.93;12.47;;;0.40;99.90;;;;;;5046427;28;20060;-79
2024/01/07 02:11:18;;;;;;;17.27;12.80;;;0.40;99.90;;;;;;5047368;28;20063;-78
2024/01/07 02:13:44;;;;;;;19.90;13.60;;;0.50;99.90;;;;;;5049955;28;20079;-79
2024/01/07 02:16:09;;;;;;;17.63;12.67;;;0.40;99.90;;;;;;5054477;28;20041;-78
2024/01/07 02:18:35;;;;;;;17.73;13.00;;;0.40;99.90;;;;;;5050126;28;20056;-75
2024/01/07 02:21:01;;;;;;;16.70;11.63;;;0.40;99.90;;;;;;5055334;28;20037;-79
2024/01/07 02:23:26;;;;;;;18.13;12.40;;;0.40;99.90;;;;;;5051916;28;20073;-78
2024/01/07 02:25:52;;;;;;;15.43;11.93;;;0.40;99.90;;;;;;5053548;28;20460;-79
2024/01/07 02:28:18;;;;;;;15.50;11.70;;;0.30;99.90;;;;;;5055667;28;20076;-78
2024/01/07 02:30:43;;;;;;;14.77;10.77;;;0.40;99.90;;;;;;5048582;28;20052;-79
2024/01/07 02:33:09;;;;;;;15.27;10.90;;;0.40;99.90;;;;;;5053185;28;20162;-77
2024/01/07 02:35:35;;;;;;;17.90;11.73;;;0.30;99.90;;;;;;5053216;28;20053;-78
2024/01/07 02:38:00;;;;;;;17.03;11.23;;;0.30;99.90;;;;;;5054206;28;20056;-78
2024/01/07 02:40:26;;;;;;;17.60;11.97;;;0.30;99.90;;;;;;5056283;28;20048;-78
2024/01/07 02:42:52;;;;;;;15.03;11.13;;;0.30;99.90;;;;;;5048813;28;20048;-75
2024/01/07 02:45:18;;;;;;;15.13;11.33;;;0.20;99.90;;;;;;5051452;28;20046;-78
2024/01/07 02:47:43;;;;;;;15.17;11.17;;;0.30;99.90;;;;;;5050139;28;20052;-78
2024/01/07 02:50:09;;;;;;;15.40;11.30;;;0.30;99.90;;;;;;5054177;28;20041;-78
2024/01/07 02:52:35;;;;;;;15.63;10.50;;;0.30;99.90;;;;;;5046594;28;20104;-79
2024/01/07 02:55:01;;;;;;;14.07;10.63;;;0.20;99.90;;;;;;5056074;28;20051;-78
2024/01/07 02:57:27;;;;;;;14.93;10.27;;;0.30;99.90;;;;;;5049325;28;20049;-79
2024/01/07 02:59:53;;;;;;;16.07;9.87;;;0.30;99.90;;;;;;5051473;28;20068;-79
2024/01/07 03:02:18;;;;;;;14.50;10.27;;;0.20;99.90;;;;;;5053794;28;20045;-79
2024/01/07 03:04:44;;;;;;;13.50;9.50;;;0.30;99.90;;;;;;5050185;28;20129;-79
2024/01/07 03:07:10;;;;;;;11.63;9.37;;;0.20;99.90;;;;;;5054119;28;20037;-79
2024/01/07 03:09:35;;;;;;;14.73;9.83;;;0.30;99.90;;;;;;5047694;28;20522;-78
2024/01/07 03:12:01;;;;;;;13.60;9.77;;;0.30;99.90;;;;;;5052559;28;20037;-78
2024/01/07 03:14:27;;;;;;;11.70;9.20;;;0.30;99.90;;;;;;5051997;28;20097;-79
2024/01/07 03:16:53;;;;;;;14.83;9.47;;;0.30;99.90;;;;;;5053035;28;20067;-79
2024/01/07 03:19:18;;;;;;;12.47;8.80;;;0.30;99.90;;;;;;5055438;28;20044;-78
2024/01/07 03:21:44;;;;;;;12.03;8.97;;;0.30;99.90;;;;;;5051997;28;20037;-77
2024/01/07 03:24:10;;;;;;;12.97;9.17;;;0.40;99.90;;;;;;5057471;28;20045;-78
2024/01/07 03:26:36;;;;;;;12.43;8.73;;;0.30;99.90;;;;;;5050582;28;20044;-78
2024/01/07 03:29:02;;;;;;;14.70;9.43;;;0.40;99.90;;;;;;5038553;28;20042;-78
2024/01/07 03:31:28;;;;;;;14.60;9.40;;;0.40;99.90;;;;;;5051550;28;20051;-78
2024/01/07 03:33:54;;;;;;;12.50;9.50;;;0.30;99.90;;;;;;5050255;28;20080;-79
2024/01/07 03:36:20;;;;;;;15.10;9.67;;;0.20;99.90;;;;;;5051014;28;20037;-78
2024/01/07 03:38:46;;;;;;;12.77;9.27;;;0.20;99.90;;;;;;5056328;28;20049;-77
2024/01/07 03:41:18;;;;;;;11.30;8.77;;;0.20;99.90;;;;;;5052663;28;20468;-78
2024/01/07 03:43:47;;;;;;;11.50;8.67;;;0.20;99.90;;;;;;5051339;28;20056;-79
2024/01/07 03:46:14;;;;;;;12.40;8.77;;;0.20;99.90;;;;;;5053064;28;20047;-79
2024/01/07 03:48:44;;;;;;;12.73;8.27;;;0.20;99.90;;;;;;5051324;28;20133;-79
2024/01/07 03:51:09;;;;;;;11.20;7.93;;;0.20;99.90;;;;;;5048545;28;20160;-78
2024/01/07 03:53:35;;;;;;;9.17;6.57;;;0.20;99.90;;;;;;5051577;28;20068;-79
2024/01/07 03:56:01;;;;;;;11.37;6.90;;;0.30;99.90;;;;;;5050843;28;20040;-78
2024/01/07 03:58:27;;;;;;;8.83;6.47;;;0.20;99.90;;;;;;5052232;28;20219;-79
2024/01/07 04:00:52;;;;;;;9.03;6.37;;;0.20;99.90;;;;;;5049787;28;20060;-78
2024/01/07 04:03:18;;;;;;;11.67;7.03;;;0.20;99.90;;;;;;5050691;28;20490;-79
2024/01/07 04:05:45;;;;;;;8.17;6.50;;;0.10;99.90;;;;;;5052867;28;20052;-79
2024/01/07 04:08:11;;;;;;;10.70;7.60;;;0.10;99.90;;;;;;5054604;28;20041;-79
2024/01/07 04:10:38;;;;;;;11.40;7.20;;;0.00;99.90;;;;;;5052219;28;20072;-78
2024/01/07 04:13:04;;;;;;;9.70;7.50;;;0.10;99.90;;;;;;5054030;28;20123;-79
2024/01/07 04:15:30;;;;;;;10.27;7.67;;;0.20;99.90;;;;;;5030923;28;20037;-78
2024/01/07 04:17:56;;;;;;;10.20;7.20;;;0.10;99.90;;;;;;5049375;28;20045;-77
2024/01/07 04:20:22;;;;;;;11.27;7.40;;;0.10;99.90;;;;;;5055683;28;20106;-77
2024/01/07 04:22:47;;;;;;;9.40;6.80;;;0.10;99.90;;;;;;5048413;28;20140;-77
2024/01/07 04:25:13;;;;;;;11.43;6.97;;;0.10;99.90;;;;;;5048004;28;20559;-78
2024/01/07 04:27:39;;;;;;;9.07;6.47;;;0.10;99.90;;;;;;5054698;28;20124;-78
2024/01/07 04:30:06;;;;;;;9.17;6.67;;;0.10;99.90;;;;;;5051358;28;20049;-78
2024/01/07 04:32:32;;;;;;;7.97;6.60;;;0.10;99.90;;;;;;5051076;28;20072;-79
2024/01/07 04:34:57;;;;;;;8.87;6.80;;;0.20;99.90;;;;;;5053118;28;20053;-78
2024/01/07 04:37:24;;;;;;;9.67;6.00;;;0.10;99.90;;;;;;5053630;28;20043;-76
2024/01/07 04:39:50;;;;;;;9.83;6.40;;;0.20;99.90;;;;;;5047683;28;20132;-78
2024/01/07 04:42:19;;;;;;;9.07;6.17;;;0.10;99.90;;;;;;5049064;28;20078;-76
2024/01/07 04:44:45;;;;;;;8.77;5.90;;;0.20;99.90;;;;;;5045670;28;20045;-80
2024/01/07 04:47:30;;;;;;;8.47;6.23;;;0.10;99.90;;;;;;5051626;28;20039;-78
2024/01/07 04:49:57;;;;;;;7.37;5.87;;;0.10;99.90;;;;;;5055358;28;20067;-77
2024/01/07 04:52:23;;;;;;;8.63;6.00;;;0.20;99.90;;;;;;5045512;28;20045;-78
2024/01/07 04:54:55;;;;;;;8.30;5.67;;;0.10;99.90;;;;;;5051399;28;20554;-78
2024/01/07 04:57:22;;;;;;;7.20;5.35;;;0.10;99.90;;;;;;5048422;28;20049;-79
2024/01/07 04:59:49;;;;;;;8.17;5.67;;;0.10;99.90;;;;;;5049322;28;20059;-78
2024/01/07 05:02:14;;;;;;;7.67;5.40;;;0.20;99.90;;;;;;5050828;28;20045;-78
2024/01/07 05:04:41;;;;;;;9.90;5.33;;;0.20;99.90;;;;;;5049799;28;20045;-79
2024/01/07 05:07:07;;;;;;;5.73;4.67;;;0.20;99.90;;;;;;5050955;28;20051;-78
2024/01/07 05:09:33;;;;;;;7.43;5.13;;;0.20;99.90;;;;;;5045742;28;20112;-79
2024/01/07 05:11:59;;;;;;;10.03;6.17;;;0.10;99.90;;;;;;5052931;28;20109;-79
2024/01/07 05:14:25;;;;;;;8.60;5.50;;;0.10;99.90;;;;;;5052064;28;20049;-79
2024/01/07 05:16:50;;;;;;;6.63;5.30;;;0.20;99.90;;;;;;5046446;28;20079;-79
2024/01/07 05:19:16;;;;;;;7.67;5.40;;;0.20;99.90;;;;;;5049467;28;20057;-80
2024/01/07 05:21:42;;;;;;;7.83;5.60;;;0.20;99.90;;;;;;5051724;28;20045;-78
2024/01/07 05:24:07;;;;;;;6.37;4.90;;;0.10;99.90;;;;;;5053756;28;20052;-79
2024/01/07 05:26:44;;;;;;;7.43;5.17;;;0.30;99.90;;;;;;5032436;28;20057;-76
2024/01/07 05:29:11;;;;;;;7.13;4.97;;;0.20;99.90;;;;;;5054138;28;20115;-79
2024/01/07 05:31:37;;;;;;;7.13;4.93;;;0.20;99.90;;;;;;5044228;28;20080;-78
2024/01/07 05:34:03;;;;;;;5.70;4.50;;;0.20;99.90;;;;;;5049672;28;20120;-79
2024/01/07 05:36:28;;;;;;;5.70;4.30;;;0.20;99.90;;;;;;5053996;28;20064;-78
2024/01/07 05:38:54;;;;;;;7.03;4.50;;;0.10;99.90;;;;;;5053470;28;20312;-78
2024/01/07 05:41:20;;;;;;;5.07;3.97;;;0.20;99.90;;;;;;5049881;28;20049;-79
2024/01/07 05:43:46;;;;;;;6.43;4.33;;;0.20;99.90;;;;;;5045628;28;20038;-78
2024/01/07 05:46:12;;;;;;;6.03;4.30;;;0.20;99.90;;;;;;5052806;28;20030;-79
2024/01/07 05:48:49;;;;;;;5.93;4.07;;;0.20;99.90;;;;;;5049834;28;20508;-77
2024/01/07 05:51:16;;;;;;;6.00;4.07;;;0.20;99.90;;;;;;5064820;28;20049;-77
2024/01/07 05:53:43;;;;;;;7.20;3.87;;;0.20;99.90;;;;;;5043098;28;20079;-87
2024/01/07 05:56:09;;;;;;;4.37;3.67;;;0.20;99.90;;;;;;5049056;28;20067;-79
2024/01/07 05:58:34;;;;;;;6.33;3.70;;;0.20;99.90;;;;;;5068139;28;20045;-79
2024/01/07 06:01:00;;;;;;;5.73;3.57;;;0.20;99.90;;;;;;5059323;28;20062;-78
2024/01/07 06:03:26;;;;;;;5.40;3.90;;;0.20;99.90;;;;;;5064446;28;20032;-79
2024/01/07 06:05:52;;;;;;;5.23;3.50;;;0.20;99.90;;;;;;5076170;28;20044;-79
2024/01/07 06:08:17;;;;;;;5.77;3.50;;;0.20;99.90;;;;;;5065307;28;20063;-78
2024/01/07 06:10:43;;;;;;;4.20;3.37;;;0.20;99.90;;;;;;5055631;28;20048;-79
2024/01/07 06:13:09;;;;;;;7.43;3.40;;;0.20;99.90;;;;;;5063020;28;20037;-79
2024/01/07 06:15:35;;;;;;;4.60;3.10;;;0.20;99.90;;;;;;5064623;28;20045;-78
2024/01/07 06:18:01;;;;;;;5.43;3.60;;;0.30;99.90;;;;;;5048473;28;20059;-78
2024/01/07 06:20:28;;;;;;;4.60;2.93;;;0.30;99.90;;;;;;5058918;28;20048;-76
2024/01/07 06:22:53;;;;;;;3.37;2.90;;;0.20;99.90;;;;;;5056854;28;20412;-84
2024/01/07 06:25:20;;;;;;;4.17;3.40;;;0.30;99.90;;;;;;5068973;28;20041;-82
2024/01/07 06:27:46;;;;;;;6.17;3.13;;;0.30;99.90;;;;;;5057396;28;20045;-81
2024/01/07 06:30:12;;;;;;;5.33;3.00;;;0.30;99.90;;;;;;5059899;28;20456;-83
2024/01/07 06:32:38;;;;;;;5.33;2.90;;;0.30;99.90;;;;;;5057570;28;20045;-83
2024/01/07 06:35:04;;;;;;;5.43;2.73;;;0.30;99.90;;;;;;5063905;28;20053;-84
2024/01/07 06:37:30;;;;;;;3.90;3.00;;;0.30;99.90;;;;;;5070849;28;20523;-84
2024/01/07 06:39:58;;;;;;;4.40;3.20;;;0.20;99.90;;;;;;5069549;28;20788;-83
2024/01/07 06:42:24;;;;;;;4.23;3.20;;;0.20;99.90;;;;;;5062884;28;20096;-83
2024/01/07 06:44:49;;;;;;;4.83;3.13;;;0.30;99.90;;;;;;5068681;28;20583;-84
2024/01/07 06:47:15;;;;;;;3.83;2.93;;;0.20;99.90;;;;;;5066092;28;20551;-83
2024/01/07 06:49:41;;;;;;;4.60;3.00;;;0.20;99.90;;;;;;5069341;28;20106;-84
2024/01/07 06:52:07;;;;;;;6.13;3.20;;;0.20;99.90;;;;;;5067270;28;20036;-86
2024/01/07 06:54:33;;;;;;;5.23;3.20;;;0.20;99.90;;;;;;5073716;28;20044;-86
2024/01/07 06:56:58;;;;;;;3.37;2.70;;;0.20;99.90;;;;;;5067935;28;20095;-83
2024/01/07 06:59:24;;;;;;;3.37;3.07;;;0.20;99.90;;;;;;5046803;28;20095;-86
2024/01/07 07:01:50;;;;;;;3.77;3.30;;;0.20;99.90;;;;;;5066744;28;20109;-85
2024/01/07 07:04:15;;;;;;;3.47;2.93;;;0.20;99.90;;;;;;5062421;28;20052;-86
2024/01/07 07:06:41;;;;;;;3.80;3.17;;;0.10;99.90;;;;;;5076007;28;20579;-83
2024/01/07 07:09:06;;;;;;;4.37;2.70;;;0.20;99.90;;;;;;5060592;28;20059;-81
2024/01/07 07:11:32;;;;;;;5.23;3.00;;;0.30;99.90;;;;;;5037558;28;20049;-82
2024/01/07 07:13:58;;;;;;;5.10;2.97;;;0.20;99.90;;;;;;5063971;28;20067;-82
2024/01/07 07:16:25;;;;;;;5.03;3.03;;;0.20;99.90;;;;;;5061335;28;20484;-83
2024/01/07 07:18:50;;;;;;;3.10;2.80;;;0.30;99.90;;;;;;5067092;28;20056;-83
2024/01/07 07:21:16;;;;;;;6.00;3.40;;;0.20;99.90;;;;;;5057189;28;20052;-81
2024/01/07 07:23:42;;;;;;;3.10;2.80;;;0.20;99.90;;;;;;5070822;28;20056;-82
2024/01/07 07:26:08;;;;;;;4.17;2.93;;;0.20;99.90;;;;;;5058936;28;20124;-83
2024/01/07 07:28:34;;;;;;;3.43;3.00;;;0.10;99.90;;;;;;5073334;28;20044;-83
2024/01/07 07:30:59;;;;;;;5.13;3.10;;;0.10;99.90;;;;;;5062045;28;20498;-78
2024/01/07 07:33:25;;;;;;;4.13;2.77;;;0.10;99.90;;;;;;5068395;28;20053;-79
2024/01/07 07:35:50;;;;;;;4.67;3.13;;;0.20;99.90;;;;;;5072046;28;20512;-79
2024/01/07 07:38:16;;;;;;;3.33;2.93;;;0.10;99.90;;;;;;5045226;28;20054;-78
2024/01/07 07:40:42;;;;;;;3.87;3.10;;;0.10;99.90;;;;;;5069741;28;20048;-80
2024/01/07 07:43:08;;;;;;;4.50;2.77;;;0.00;99.90;;;;;;5064217;28;20052;-80
2024/01/07 07:45:34;;;;;;;3.20;2.70;;;0.00;99.90;;;;;;5063806;28;20049;-80
2024/01/07 07:48:00;;;;;;;2.80;2.50;;;-0.10;99.90;;;;;;5066369;28;20500;-79
2024/01/07 07:50:25;;;;;;;3.93;2.83;;;-0.10;99.90;;;;;;5072012;28;20419;-77
2024/01/07 07:52:51;;;;;;;4.27;2.50;;;-0.10;99.90;;;;;;5062789;28;20045;-78
2024/01/07 07:55:17;;;;;;;4.30;2.70;;;-0.10;99.90;;;;;;5073212;28;20559;-79
2024/01/07 07:57:44;;;;;;;3.87;2.80;;;-0.20;99.90;;;;;;5066282;28;20056;-79
2024/01/07 08:00:12;;;;;;;3.90;3.10;;;-0.30;99.90;;;;;;5071305;28;20057;-80
2024/01/07 08:02:39;;;;;;;3.97;2.83;;;-0.20;99.90;;;;;;5070569;28;20156;-80
2024/01/07 08:05:06;;;;;;;5.60;3.07;;;-0.20;99.90;;;;;;5071510;28;20052;-86
2024/01/07 08:07:32;;;;;;;3.93;2.80;;;-0.20;99.90;;;;;;5066046;28;20048;-85
2024/01/07 08:09:57;;;;;;;6.13;2.83;;;-0.20;99.90;;;;;;5071813;28;20094;-85
2024/01/07 08:12:23;;;;;;;4.23;2.70;;;-0.20;99.90;;;;;;5061073;28;20123;-86
2024/01/07 08:14:49;;;;;;;5.40;2.90;;;-0.20;99.90;;;;;;5063709;28;20036;-85
2024/01/07 08:17:15;;;;;;;3.70;2.60;;;-0.20;99.90;;;;;;5068128;28;20044;-84
2024/01/07 08:19:40;;;;;;;4.93;2.80;;;-0.30;99.90;;;;;;5071902;28;20040;-85
2024/01/07 08:22:06;;;;;;;6.50;2.90;;;-0.30;99.90;;;;;;5063086;28;20040;-86
2024/01/07 08:24:32;;;;;;;3.87;2.80;;;-0.30;99.90;;;;;;5069317;28;20045;-84
2024/01/07 08:26:57;;;;;;;3.83;2.97;;;-0.30;99.90;;;;;;5065669;28;20045;-85
2024/01/07 08:29:23;;;;;;;3.17;2.53;;;-0.20;99.90;;;;;;5063786;28;20391;-81
2024/01/07 08:31:49;;;;;;;5.90;2.70;;;-0.30;99.90;;;;;;5070301;28;20072;-82
2024/01/07 08:34:15;;;;;;;4.30;2.80;;;-0.20;99.90;;;;;;5066175;28;20562;-82
2024/01/07 08:36:41;;;;;;;3.13;2.23;;;-0.20;99.90;;;;;;5070255;28;20045;-81
2024/01/07 08:39:07;;;;;;;3.10;2.30;;;-0.10;99.90;;;;;;5067919;28;20056;-82
2024/01/07 08:41:33;;;;;;;3.33;2.77;;;-0.20;99.90;;;;;;5067580;28;20049;-82
2024/01/07 08:43:59;;;;;;;3.03;2.60;;;-0.20;99.90;;;;;;5063689;28;20047;-82
2024/01/07 08:46:25;;;;;;;3.97;2.87;;;-0.20;99.90;;;;;;5063232;28;20081;-80
2024/01/07 08:48:50;;;;;;;3.10;2.80;;;-0.10;99.90;;;;;;5070719;28;20037;-82
2024/01/07 08:51:16;;;;;;;6.17;2.80;;;-0.20;99.90;;;;;;5055976;28;20049;-82
2024/01/07 08:53:42;;;;;;;4.07;2.60;;;-0.20;99.90;;;;;;5070602;28;20040;-82
2024/01/07 08:56:08;;;;;;;3.63;2.47;;;-0.10;99.90;;;;;;5071343;28;20151;-80
2024/01/07 08:58:34;;;;;;;4.63;2.60;;;-0.10;99.90;;;;;;5061549;28;20435;-82
2024/01/07 09:01:00;;;;;;;3.13;2.57;;;0.10;99.90;;;;;;5060713;28;20049;-81
2024/01/07 09:03:26;;;;;;;2.43;2.23;;;0.00;99.90;;;;;;5064770;28;20048;-80
2024/01/07 09:05:51;;;;;;;2.97;2.53;;;0.10;99.90;;;;;;5048812;28;20115;-80
2024/01/07 09:08:17;;;;;;;3.03;2.70;;;0.00;99.90;;;;;;5046037;28;20485;-77
2024/01/07 09:10:43;;;;;;;2.57;2.37;;;0.10;99.90;;;;;;5062650;28;20058;-78
2024/01/07 09:13:08;;;;;;;4.10;2.47;;;0.10;99.90;;;;;;5067030;28;20068;-79
2024/01/07 09:15:34;;;;;;;4.53;2.37;;;0.10;99.90;;;;;;5072156;28;20067;-78
2024/01/07 09:18:00;;;;;;;2.57;2.00;;;0.10;99.90;;;;;;5047187;28;20079;-78
2024/01/07 09:20:25;;;;;;;2.73;2.40;;;0.10;99.90;;;;;;5068855;28;20096;-79
2024/01/07 09:22:51;;;;;;;2.70;2.27;;;0.20;99.90;;;;;;5064899;28;20405;-79
2024/01/07 09:25:17;;;;;;;5.33;2.77;;;0.10;99.90;;;;;;5050218;28;20069;-78
2024/01/07 09:27:43;;;;;;;2.60;2.23;;;0.20;99.90;;;;;;5068257;28;20079;-79
2024/01/07 09:30:14;;;;;;;4.67;3.37;;;0.10;99.90;;;;;;5069898;28;20517;-79
2024/01/07 09:32:41;;;;;;;4.10;2.60;;;0.20;99.90;;;;;;5069653;28;20311;-79
2024/01/07 09:35:08;;;;;;;3.80;2.47;;;0.30;99.90;;;;;;5057831;28;20088;-78
2024/01/07 09:37:35;;;;;;;2.77;2.33;;;0.30;99.90;;;;;;5055640;28;20052;-77
2024/01/07 09:40:01;;;;;;;3.70;2.80;;;0.40;99.90;;;;;;5066653;28;20055;-79
2024/01/07 09:42:27;;;;;;;3.03;2.50;;;0.50;99.90;;;;;;5065631;28;20111;-78
2024/01/07 09:44:52;;;;;;;5.77;3.23;;;0.40;99.90;;;;;;5057138;28;20513;-78
2024/01/07 09:47:20;;;;;;;3.50;2.30;;;0.40;99.90;;;;;;5058305;28;20041;-77
2024/01/07 09:49:46;;;;;;;2.73;2.53;;;0.50;99.90;;;;;;5067338;28;20052;-77
2024/01/07 09:52:12;;;;;;;3.93;3.13;;;0.50;99.90;;;;;;5046194;28;20045;-78
2024/01/07 09:54:39;;;;;;;5.33;2.87;;;0.40;99.90;;;;;;5069319;28;20414;-77
2024/01/07 09:57:07;;;;;;;2.83;2.30;;;0.60;99.90;;;;;;5056728;28;20063;-77
2024/01/07 09:59:33;;;;;;;3.87;2.67;;;0.60;99.90;;;;;;5064111;28;20056;-77
2024/01/07 10:01:59;;;;;;;3.97;2.60;;;0.60;99.90;;;;;;5061258;28;20047;-77
2024/01/07 10:04:27;;;;;;;3.83;2.93;;;0.60;99.90;;;;;;5066051;28;20447;-78
2024/01/07 10:06:54;;;;;;;3.60;2.80;;;0.60;99.90;;;;;;5064929;28;20045;-78
2024/01/07 10:09:21;;;;;;;4.00;2.60;;;0.50;99.90;;;;;;5067823;28;20442;-79
2024/01/07 10:11:47;;;;;;;3.27;2.53;;;0.50;99.90;;;;;;5064516;28;20052;-78
2024/01/07 10:14:13;;;;;;;4.43;2.50;;;0.50;99.90;;;;;;5067801;28;20037;-78
2024/01/07 10:16:39;;;;;;;3.37;2.70;;;0.50;99.90;;;;;;5059060;28;20056;-78
2024/01/07 10:19:05;;;;;;;3.80;2.80;;;0.50;99.90;;;;;;5069788;28;20400;-78
2024/01/07 10:21:31;;;;;;;5.23;3.10;;;0.50;99.90;;;;;;5063878;28;20060;-78
2024/01/07 10:24:10;;;;;;;5.63;2.80;;;0.60;99.90;;;;;;5072493;28;20056;-78
2024/01/07 10:26:38;;;;;;;4.37;2.80;;;0.80;99.90;;;;;;5057693;28;20059;-76
2024/01/07 10:29:04;;;;;;;4.83;2.70;;;0.70;99.90;;;;;;5071220;28;20102;-77
2024/01/07 10:31:31;;;;;;;5.37;3.77;;;0.80;99.90;;;;;;5063749;28;20037;-78
2024/01/07 10:33:57;;;;;;;5.93;3.80;;;0.80;99.90;;;;;;5063584;28;20055;-78
2024/01/07 10:36:24;;;;;;;4.07;3.10;;;0.70;99.90;;;;;;5069197;28;20132;-77
2024/01/07 10:38:50;;;;;;;4.70;2.70;;;0.80;99.90;;;;;;5062309;28;20051;-78
2024/01/07 10:41:19;;;;;;;4.03;2.73;;;0.80;99.90;;;;;;5060161;28;20072;-77
2024/01/07 10:43:48;;;;;;;4.00;2.87;;;0.90;99.90;;;;;;5076874;28;20095;-78
2024/01/07 10:46:15;;;;;;;3.43;2.70;;;0.90;99.90;;;;;;5071513;28;20128;-79
2024/01/07 10:48:50;;;;;;;3.30;2.77;;;1.00;99.90;;;;;;5074568;28;20379;-78
2024/01/07 10:51:18;;;;;;;2.97;2.50;;;0.90;99.90;;;;;;5058574;28;20036;-77
2024/01/07 10:53:51;;;;;;;3.77;2.30;;;1.00;99.90;;;;;;5066289;28;20066;-75
2024/01/07 10:56:22;;;;;;;3.17;2.73;;;1.00;99.90;;;;;;5067414;28;20610;-78
2024/01/07 10:58:48;;;;;;;2.67;2.30;;;0.90;99.90;;;;;;5068824;28;20048;-78
2024/01/07 11:01:15;;;;;;;3.93;2.57;;;0.90;99.90;;;;;;5065240;28;20048;-78
2024/01/07 11:03:47;;;;;;;2.80;2.60;;;0.90;99.90;;;;;;5076724;28;20590;-77
2024/01/07 11:06:27;;;;;;;2.87;2.57;;;0.90;99.90;;;;;;5068175;28;20045;-77
2024/01/07 11:09:03;;;;;;;3.20;2.43;;;0.90;99.90;;;;;;5058409;28;20161;-74
2024/01/07 11:11:47;;;;;;;3.77;2.60;;;1.00;99.90;;;;;;5063209;28;20101;-77
2024/01/07 11:14:32;;;;;;;3.40;2.23;;;1.00;99.90;;;;;;5062728;28;20056;-77
2024/01/07 11:16:58;;;;;;;3.63;2.27;;;1.10;99.90;;;;;;5071752;28;20072;-75
2024/01/07 11:19:23;;;;;;;4.93;2.70;;;1.10;99.90;;;;;;5064712;28;20071;-77
2024/01/07 11:21:50;;;;;;;3.50;2.77;;;1.20;99.90;;;;;;5062565;28;20111;-74
2024/01/07 11:24:38;;;;;;;2.60;2.37;;;1.30;99.90;;;;;;5063835;28;20294;-77
2024/01/07 11:27:03;;;;;;;3.03;2.70;;;1.30;99.90;;;;;;5071345;28;20060;-76
2024/01/07 11:29:31;;;;;;;3.83;2.50;;;1.20;99.90;;;;;;5064912;28;20037;-77
2024/01/07 11:31:58;;;;;;;5.33;2.90;;;1.30;99.90;;;;;;5063173;28;20758;-77
2024/01/07 11:34:53;;;;;;;4.50;2.70;;;1.40;99.90;;;;;;5060388;28;20064;-76
2024/01/07 11:37:19;;;;;;;3.57;2.67;;;1.40;99.90;;;;;;5061729;28;20083;-75
2024/01/07 11:39:46;;;;;;;3.90;2.90;;;1.50;99.90;;;;;;5059846;28;20049;-76
2024/01/07 11:42:12;;;;;;;4.27;3.17;;;1.50;99.90;;;;;;5074563;28;20761;-77
2024/01/07 11:44:48;;;;;;;5.13;2.90;;;1.50;99.90;;;;;;5062725;28;20053;-77
2024/01/07 11:47:18;;;;;;;5.73;3.10;;;1.50;99.90;;;;;;5054407;28;20543;-77
2024/01/07 11:49:45;;;;;;;4.60;3.37;;;1.50;99.90;;;;;;5060971;28;20138;-77
2024/01/07 11:52:11;;;;;;;4.33;3.17;;;1.60;99.90;;;;;;5072219;28;20052;-77
2024/01/07 11:54:40;;;;;;;4.83;3.70;;;1.70;99.90;;;;;;5072091;28;20119;-78
2024/01/07 11:57:10;;;;;;;5.80;3.20;;;1.70;99.90;;;;;;5029563;28;20106;-77
2024/01/07 11:59:36;;;;;;;4.23;3.27;;;1.70;99.90;;;;;;5067935;28;20041;-76
2024/01/07 12:02:04;;;;;;;6.07;3.67;;;1.70;99.90;;;;;;5067679;28;20079;-76
2024/01/07 12:04:33;;;;;;;5.23;3.40;;;1.70;99.90;;;;;;5059021;28;20691;-76
2024/01/07 12:07:00;;;;;;;4.60;3.50;;;1.70;99.90;;;;;;5062393;28;20929;-76
2024/01/07 12:09:26;;;;;;;5.83;3.70;;;1.80;99.90;;;;;;5063883;28;20051;-75
2024/01/07 12:11:52;;;;;;;11.37;7.23;;;1.70;99.90;;;;;;5065521;28;20041;-76
2024/01/07 12:14:19;;;;;;;5.60;4.73;;;1.70;99.90;;;;;;5071223;28;20036;-75
2024/01/07 12:16:45;;;;;;;27.87;12.90;;;1.60;99.90;;;;;;5046947;28;20048;-77
2024/01/07 12:19:12;;;;;;;7.27;5.07;;;1.60;99.90;;;;;;5066036;28;20048;-74
2024/01/07 12:21:38;;;;;;;8.90;4.93;;;1.60;99.90;;;;;;5056233;28;20048;-76
2024/01/07 12:24:04;;;;;;;9.07;5.77;;;1.70;99.90;;;;;;5063750;28;20127;-76
2024/01/07 12:26:30;;;;;;;25.07;11.83;;;1.60;99.90;;;;;;5053561;28;20082;-77
2024/01/07 12:29:06;;;;;;;11.07;5.77;;;1.60;99.90;;;;;;5039061;28;20037;-74
2024/01/07 12:31:33;;;;;;;19.60;9.37;;;1.70;99.90;;;;;;5060623;28;20064;-77
2024/01/07 12:33:59;;;;;;;6.43;4.30;;;1.70;99.90;;;;;;5058106;28;20499;-77
2024/01/07 12:36:26;;;;;;;7.63;4.97;;;1.60;99.90;;;;;;5060345;28;20098;-76
2024/01/07 12:38:54;;;;;;;9.03;5.83;;;1.70;99.90;;;;;;5059411;28;20052;-77
2024/01/07 12:41:20;;;;;;;11.17;6.20;;;1.70;99.90;;;;;;5057321;28;20056;-76
2024/01/07 12:43:46;;;;;;;8.67;6.27;;;1.70;99.90;;;;;;5065904;28;20106;-77
2024/01/07 12:46:12;;;;;;;8.93;5.43;;;1.70;99.90;;;;;;5062609;28;20599;-77
2024/01/07 12:48:38;;;;;;;12.03;5.60;;;1.80;99.90;;;;;;5063273;28;20524;-76